In Rescue
 
Open Full Screen Window  High Contrast Mode
Wind Gusting 00 knots
04
April 24, 2019 1:55 AM EDT
Weather Information
Wind Direction
  310 °
Wind Speed
  04 kt (5 mph)
Wind Gust
  00 kt (0 mph)
Altimeter
30.02 in
Visibility
10 SM
Temperature
07° C
45° F
Dewpoint
04° C
39° F
Humidity
81%
Sky Condition
Clear
VFR

METAR KAXV 240555Z AUTO 31004KT 10SM CLR 07/04 A3002 RMK AO2

FAA Disclaimer: The data displayed is for advisory purposes only and is not to be used for flight planning or operations.